createdAt,value
2023-03-07T00:01:30.962Z,3.42
2023-03-07T00:03:37.052Z,3.39
2023-03-07T00:05:43.220Z,3.36
2023-03-07T00:07:47.099Z,3.36
2023-03-07T00:09:50.604Z,3.36
2023-03-07T00:11:54.884Z,3.37
2023-03-07T00:13:58.591Z,3.38
2023-03-07T00:16:03.575Z,3.37
2023-03-07T00:18:07.538Z,3.38
2023-03-07T00:20:14.655Z,3.38
2023-03-07T00:22:19.419Z,3.37
2023-03-07T00:24:23.171Z,3.35
2023-03-07T00:26:28.028Z,3.35
2023-03-07T00:28:32.328Z,3.34
2023-03-07T00:30:35.842Z,3.35
2023-03-07T00:32:39.365Z,3.34
2023-03-07T00:34:43.206Z,3.33
2023-03-07T00:36:47.100Z,3.31
2023-03-07T00:38:52.506Z,3.30
2023-03-07T00:41:00.512Z,3.30
2023-03-07T00:43:04.616Z,3.27
2023-03-07T00:45:09.262Z,3.27
2023-03-07T00:47:12.698Z,3.25
2023-03-07T00:49:17.303Z,3.24
2023-03-07T00:51:23.920Z,3.24
2023-03-07T00:53:27.592Z,3.21
2023-03-07T00:55:35.021Z,3.19
2023-03-07T00:57:38.844Z,3.16
2023-03-07T00:59:43.395Z,3.14
2023-03-07T01:01:49.087Z,3.11
2023-03-07T01:03:54.433Z,3.12
2023-03-07T01:05:58.284Z,3.11
2023-03-07T01:08:02.153Z,3.10
2023-03-07T01:10:07.324Z,3.09
2023-03-07T01:12:12.129Z,3.05
2023-03-07T01:14:15.813Z,3.05
2023-03-07T01:16:26.147Z,3.03
2023-03-07T01:18:30.065Z,3.00
2023-03-07T01:20:34.767Z,2.98
2023-03-07T01:22:38.621Z,2.95
2023-03-07T01:24:43.061Z,2.92
2023-03-07T01:26:47.473Z,2.93
2023-03-07T01:28:53.902Z,2.92
2023-03-07T01:31:01.079Z,2.90
2023-03-07T01:33:05.555Z,2.88
2023-03-07T01:35:09.987Z,2.86
2023-03-07T01:37:14.050Z,2.87
2023-03-07T01:39:19.033Z,2.86
2023-03-07T01:41:37.244Z,2.84
2023-03-07T01:43:42.108Z,2.84
2023-03-07T01:46:41.309Z,2.83
2023-03-07T01:48:47.308Z,2.81
2023-03-07T01:50:51.046Z,2.80
2023-03-07T01:52:58.407Z,2.78
2023-03-07T01:55:06.625Z,2.77
2023-03-07T01:57:11.702Z,2.77
2023-03-07T01:59:20.248Z,2.74
2023-03-07T02:01:25.490Z,2.74
2023-03-07T02:03:36.881Z,2.71
2023-03-07T02:05:46.597Z,2.73
2023-03-07T02:07:52.174Z,2.70
2023-03-07T02:10:02.844Z,2.69
2023-03-07T02:12:09.604Z,2.69
2023-03-07T02:14:14.054Z,2.69
2023-03-07T02:16:17.951Z,2.68
2023-03-07T02:18:31.509Z,2.66
2023-03-07T02:20:47.795Z,2.63
2023-03-07T02:22:51.651Z,2.61
2023-03-07T02:25:02.420Z,2.58
2023-03-07T02:27:08.846Z,2.56
2023-03-07T02:29:16.198Z,2.52
2023-03-07T02:31:23.336Z,2.51
2023-03-07T02:33:27.563Z,2.51
2023-03-07T02:35:36.680Z,2.49
2023-03-07T02:37:42.707Z,2.46
2023-03-07T02:39:49.465Z,2.43
2023-03-07T02:41:56.829Z,2.39
2023-03-07T02:44:10.737Z,2.34
2023-03-07T02:46:18.034Z,2.32
2023-03-07T02:48:24.410Z,2.32
2023-03-07T02:50:29.308Z,2.28
2023-03-07T02:52:33.941Z,2.27
2023-03-07T02:54:38.248Z,2.24
2023-03-07T02:56:41.921Z,2.22
2023-03-07T02:58:45.659Z,2.20
2023-03-07T03:00:52.437Z,2.19
2023-03-07T03:02:56.135Z,2.16
2023-03-07T03:04:59.765Z,2.16
2023-03-07T03:07:03.284Z,2.15
2023-03-07T03:09:07.120Z,2.15
2023-03-07T03:11:11.450Z,2.13
2023-03-07T03:13:15.144Z,2.13
2023-03-07T03:15:19.568Z,2.12
2023-03-07T03:17:25.090Z,2.09
2023-03-07T03:19:31.387Z,2.04
2023-03-07T03:21:36.055Z,2.01
2023-03-07T03:23:45.616Z,2.01
2023-03-07T03:26:00.114Z,1.97
2023-03-07T03:28:06.762Z,1.95
2023-03-07T03:30:14.397Z,1.93
2023-03-07T03:32:22.564Z,1.91
2023-03-07T03:34:29.156Z,1.91
2023-03-07T03:36:32.960Z,1.89
2023-03-07T03:38:40.692Z,1.88
2023-03-07T03:40:45.631Z,1.85
2023-03-07T03:42:50.947Z,1.85
2023-03-07T03:44:55.579Z,1.83
2023-03-07T03:46:59.017Z,1.79
2023-03-07T03:49:04.011Z,1.76
2023-03-07T03:51:12.058Z,1.71
2023-03-07T03:53:18.817Z,1.68
2023-03-07T03:55:23.105Z,1.64
2023-03-07T03:57:28.017Z,1.62
2023-03-07T03:59:31.551Z,1.58
2023-03-07T04:01:36.583Z,1.57
2023-03-07T04:03:42.637Z,1.51
2023-03-07T04:05:46.333Z,1.47
2023-03-07T04:07:52.392Z,1.44
2023-03-07T04:09:57.176Z,1.41
2023-03-07T04:12:01.641Z,1.39
2023-03-07T04:14:06.220Z,1.40
2023-03-07T04:16:10.721Z,1.39
2023-03-07T04:18:14.101Z,1.37
2023-03-07T04:20:19.897Z,1.38
2023-03-07T04:22:25.034Z,1.37
2023-03-07T04:24:31.303Z,1.35
2023-03-07T04:26:35.799Z,1.34
2023-03-07T04:28:49.572Z,1.34
2023-03-07T04:30:58.483Z,1.34
2023-03-07T04:33:01.970Z,1.32
2023-03-07T04:35:08.635Z,1.32
2023-03-07T04:37:12.279Z,1.31
2023-03-07T04:39:16.463Z,1.33
2023-03-07T04:41:27.271Z,1.33
2023-03-07T04:43:35.105Z,1.34
2023-03-07T04:45:38.642Z,1.33
2023-03-07T04:47:42.252Z,1.32
2023-03-07T04:49:46.392Z,1.28
2023-03-07T04:51:49.822Z,1.27
2023-03-07T04:53:53.359Z,1.25
2023-03-07T04:55:59.877Z,1.21
2023-03-07T04:58:04.584Z,1.17
2023-03-07T05:00:10.347Z,1.13
2023-03-07T05:02:14.913Z,1.11
2023-03-07T05:04:19.053Z,1.07
2023-03-07T05:06:22.974Z,1.04
2023-03-07T05:08:27.600Z,1.01
2023-03-07T05:10:31.893Z,1.01
2023-03-07T05:12:35.868Z,1.00
2023-03-07T05:14:43.881Z,1.00
2023-03-07T05:16:48.587Z,0.96
2023-03-07T05:18:52.017Z,0.95
2023-03-07T05:20:56.476Z,0.94
2023-03-07T05:23:00.781Z,0.92
2023-03-07T05:25:06.627Z,0.92
2023-03-07T05:27:10.255Z,0.91
2023-03-07T05:29:14.781Z,0.92
2023-03-07T05:31:19.741Z,0.90
2023-03-07T05:33:23.208Z,0.91
2023-03-07T05:35:28.481Z,0.89
2023-03-07T05:37:35.097Z,0.85
2023-03-07T05:39:38.971Z,0.83
2023-03-07T05:41:43.748Z,0.83
2023-03-07T05:43:48.968Z,0.79
2023-03-07T05:45:52.618Z,0.76
2023-03-07T05:47:59.950Z,0.75
2023-03-07T05:50:03.651Z,0.71
2023-03-07T05:52:11.628Z,0.68
2023-03-07T05:54:15.653Z,0.65
2023-03-07T05:56:19.081Z,0.65
2023-03-07T05:58:23.454Z,0.63
2023-03-07T06:00:27.261Z,0.64
2023-03-07T06:02:36.658Z,0.63
2023-03-07T06:04:42.779Z,0.62
2023-03-07T06:06:46.189Z,0.59
2023-03-07T06:08:49.676Z,0.55
2023-03-07T06:10:55.670Z,0.53
2023-03-07T06:13:00.099Z,0.54
2023-03-07T06:15:06.722Z,0.54
2023-03-07T06:17:11.564Z,0.56
2023-03-07T06:19:21.534Z,0.57
2023-03-07T06:21:28.333Z,0.59
2023-03-07T06:23:36.362Z,0.57
2023-03-07T06:25:43.458Z,0.54
2023-03-07T06:27:47.184Z,0.53
2023-03-07T06:29:50.772Z,0.51
2023-03-07T06:31:54.456Z,0.49
2023-03-07T06:33:58.484Z,0.46
2023-03-07T06:36:08.075Z,0.41
2023-03-07T06:38:16.801Z,0.42
2023-03-07T06:40:21.958Z,0.40
2023-03-07T06:42:26.064Z,0.40
2023-03-07T06:44:30.608Z,0.39
2023-03-07T06:46:34.334Z,0.39
2023-03-07T06:48:44.003Z,0.39
2023-03-07T06:50:52.173Z,0.41
2023-03-07T06:52:55.899Z,0.43
2023-03-07T06:55:01.964Z,0.45
2023-03-07T06:57:07.292Z,0.49
2023-03-07T06:59:11.525Z,0.54
2023-03-07T07:01:20.811Z,0.55
2023-03-07T07:03:28.048Z,0.57
2023-03-07T07:05:32.079Z,0.56
2023-03-07T07:07:36.359Z,0.52
2023-03-07T07:09:42.896Z,0.51
2023-03-07T07:11:48.751Z,0.52
2023-03-07T07:13:57.297Z,0.51
2023-03-07T07:16:07.824Z,0.50
2023-03-07T07:18:15.743Z,0.53
2023-03-07T07:20:20.407Z,0.54
2023-03-07T07:22:25.404Z,0.53
2023-03-07T07:24:32.845Z,0.53
2023-03-07T07:26:41.037Z,0.52
2023-03-07T07:28:47.885Z,0.51
2023-03-07T07:30:52.402Z,0.53
2023-03-07T07:32:57.049Z,0.51
2023-03-07T07:35:07.145Z,0.54
2023-03-07T07:37:14.462Z,0.57
2023-03-07T07:39:20.334Z,0.61
2023-03-07T07:41:24.994Z,0.63
2023-03-07T07:43:33.464Z,0.66
2023-03-07T07:45:50.242Z,0.70
2023-03-07T07:47:58.528Z,0.76
2023-03-07T07:50:02.997Z,0.78
2023-03-07T07:52:12.485Z,0.80
2023-03-07T07:54:19.066Z,0.81
2023-03-07T07:56:26.031Z,0.83
2023-03-07T07:58:30.399Z,0.86
2023-03-07T08:00:34.508Z,0.87
2023-03-07T08:02:41.071Z,0.87
2023-03-07T08:04:46.214Z,0.89
2023-03-07T08:06:50.040Z,0.92
2023-03-07T08:08:54.582Z,0.93
2023-03-07T08:10:58.399Z,0.93
2023-03-07T08:13:02.246Z,0.89
2023-03-07T08:15:09.882Z,0.87
2023-03-07T08:17:14.752Z,0.86
2023-03-07T08:19:19.756Z,0.85
2023-03-07T08:21:24.125Z,0.84
2023-03-07T08:23:30.327Z,0.85
2023-03-07T08:25:37.539Z,0.83
2023-03-07T08:27:43.035Z,0.84
2023-03-07T08:29:51.639Z,0.89
2023-03-07T08:31:57.145Z,0.91
2023-03-07T08:34:01.909Z,0.90
2023-03-07T08:36:10.830Z,0.91
2023-03-07T08:38:15.635Z,0.92
2023-03-07T08:40:19.766Z,0.94
2023-03-07T08:42:23.431Z,0.92
2023-03-07T08:44:27.413Z,0.91
2023-03-07T08:46:31.144Z,0.92
2023-03-07T08:48:35.013Z,0.88
2023-03-07T08:50:41.111Z,0.86
2023-03-07T08:52:47.130Z,0.80
2023-03-07T08:54:52.056Z,0.73
2023-03-07T08:56:56.363Z,0.76
2023-03-07T08:59:00.350Z,0.86
2023-03-07T09:01:08.284Z,1.01
2023-03-07T09:03:13.022Z,1.13
2023-03-07T09:05:16.817Z,1.24
2023-03-07T09:07:21.924Z,1.41
2023-03-07T09:09:27.098Z,1.65
2023-03-07T09:11:31.707Z,1.87
2023-03-07T09:13:49.801Z,2.06
2023-03-07T09:15:55.516Z,2.36
2023-03-07T09:17:59.188Z,2.65
2023-03-07T09:20:02.808Z,2.90
2023-03-07T09:22:06.787Z,3.08
2023-03-07T09:24:10.607Z,3.24
2023-03-07T09:26:17.250Z,3.41
2023-03-07T09:28:21.063Z,3.54
2023-03-07T09:30:28.364Z,3.67
2023-03-07T09:32:33.985Z,3.81
2023-03-07T09:34:37.532Z,3.91
2023-03-07T09:36:41.585Z,4.00
2023-03-07T09:38:47.256Z,4.03
2023-03-07T09:40:50.877Z,4.18
2023-03-07T09:43:10.195Z,4.33
2023-03-07T09:45:22.993Z,4.48
2023-03-07T09:47:55.333Z,4.57
2023-03-07T09:50:03.123Z,4.63
2023-03-07T09:52:15.427Z,4.75
2023-03-07T09:54:21.591Z,4.88
2023-03-07T09:56:28.737Z,4.94
2023-03-07T09:58:36.865Z,4.95
2023-03-07T10:00:47.663Z,4.92
2023-03-07T10:02:56.429Z,4.89
2023-03-07T10:05:06.249Z,4.85
2023-03-07T10:07:14.295Z,4.83
2023-03-07T10:09:22.141Z,4.82
2023-03-07T10:11:39.206Z,4.88
2023-03-07T10:14:05.268Z,5.01
2023-03-07T10:16:22.181Z,5.15
2023-03-07T10:18:50.869Z,5.22
2023-03-07T10:21:00.097Z,5.23
2023-03-07T10:23:19.392Z,5.27
2023-03-07T10:25:31.184Z,5.30
2023-03-07T10:27:35.324Z,5.27
2023-03-07T10:29:47.572Z,5.33
2023-03-07T10:31:56.885Z,5.39
2023-03-07T10:34:00.755Z,5.47
2023-03-07T10:36:10.552Z,5.54
2023-03-07T10:38:21.477Z,5.59
2023-03-07T10:40:33.407Z,5.61
2023-03-07T10:42:39.972Z,5.61
2023-03-07T10:44:48.298Z,5.63
2023-03-07T10:46:56.690Z,5.61
2023-03-07T10:49:11.002Z,5.70
2023-03-07T10:51:31.470Z,5.84
2023-03-07T10:53:39.228Z,5.95
2023-03-07T10:55:44.877Z,5.89
2023-03-07T10:57:48.644Z,5.89
2023-03-07T10:59:53.684Z,5.80
2023-03-07T11:02:03.722Z,5.81
2023-03-07T11:04:10.259Z,5.57
2023-03-07T11:06:32.861Z,5.62
2023-03-07T11:08:38.056Z,5.69
2023-03-07T11:10:42.017Z,5.54
2023-03-07T11:12:47.816Z,5.57
2023-03-07T11:14:56.118Z,5.67
2023-03-07T11:17:01.627Z,5.63
2023-03-07T11:19:05.692Z,5.49
2023-03-07T11:21:30.250Z,5.55
2023-03-07T11:23:34.186Z,5.55
2023-03-07T11:25:39.378Z,5.34
2023-03-07T11:27:54.980Z,5.50
2023-03-07T11:30:25.311Z,5.53
2023-03-07T11:32:29.129Z,5.66
2023-03-07T11:34:38.904Z,5.70
2023-03-07T11:36:48.785Z,5.64
2023-03-07T11:39:01.126Z,5.53
2023-03-07T11:41:09.523Z,5.37
2023-03-07T11:43:22.689Z,5.20
2023-03-07T11:45:38.452Z,5.05
2023-03-07T11:47:55.427Z,4.96
2023-03-07T11:50:22.992Z,4.98
2023-03-07T11:52:48.193Z,5.03
2023-03-07T11:55:03.750Z,4.78
2023-03-07T11:57:21.589Z,4.66
2023-03-07T11:59:48.901Z,4.64
2023-03-07T12:01:59.427Z,4.80
2023-03-07T12:04:44.899Z,4.92
2023-03-07T12:07:00.168Z,5.09
2023-03-07T12:09:13.790Z,5.16
2023-03-07T12:11:42.868Z,5.20
2023-03-07T12:13:58.672Z,5.19
2023-03-07T12:16:11.896Z,5.09
2023-03-07T12:18:40.438Z,5.08
2023-03-07T12:20:54.804Z,5.18
2023-03-07T12:23:08.961Z,5.31
2023-03-07T12:25:25.570Z,5.41
2023-03-07T12:27:33.963Z,5.43
2023-03-07T12:29:41.887Z,5.47
2023-03-07T12:31:48.757Z,5.54
2023-03-07T12:33:58.451Z,5.61
2023-03-07T12:36:06.866Z,5.65
2023-03-07T12:38:15.837Z,5.59
2023-03-07T12:40:22.647Z,5.47
2023-03-07T12:42:36.733Z,5.31
2023-03-07T12:44:44.548Z,5.12
2023-03-07T12:46:55.644Z,4.97
2023-03-07T12:49:07.649Z,4.89
2023-03-07T12:51:19.196Z,4.81
2023-03-07T12:53:31.768Z,4.74
2023-03-07T12:55:41.012Z,4.79
2023-03-07T12:57:51.484Z,4.84
2023-03-07T13:00:00.162Z,4.88
2023-03-07T13:02:08.028Z,4.77
2023-03-07T13:04:19.005Z,4.66
2023-03-07T13:06:25.119Z,4.54
2023-03-07T13:08:29.239Z,4.52
2023-03-07T13:10:33.512Z,4.56
2023-03-07T13:12:37.645Z,4.67
2023-03-07T13:14:42.898Z,4.63
2023-03-07T13:16:47.865Z,4.60
2023-03-07T13:18:51.519Z,4.60
2023-03-07T13:21:31.952Z,4.60
2023-03-07T13:23:35.922Z,4.58
2023-03-07T13:26:04.785Z,4.66
2023-03-07T13:28:39.567Z,4.72
2023-03-07T13:31:31.250Z,4.72
2023-03-07T13:33:34.994Z,4.79
2023-03-07T13:35:56.214Z,4.87
2023-03-07T13:38:04.071Z,4.93
2023-03-07T13:40:25.208Z,5.00
2023-03-07T13:42:48.472Z,4.98
2023-03-07T13:44:52.096Z,4.95
2023-03-07T13:47:01.471Z,4.94
2023-03-07T13:49:05.127Z,4.93
2023-03-07T13:51:10.638Z,4.91
2023-03-07T13:53:20.389Z,4.84
2023-03-07T13:55:30.265Z,4.78
2023-03-07T13:57:41.932Z,4.79
2023-03-07T13:59:50.123Z,4.81
2023-03-07T14:01:58.829Z,4.82
2023-03-07T14:04:09.828Z,4.77
2023-03-07T14:06:19.482Z,4.77
2023-03-07T14:08:29.836Z,4.82
2023-03-07T14:10:33.582Z,4.92
2023-03-07T14:12:52.076Z,5.04
2023-03-07T14:15:12.676Z,5.12
2023-03-07T14:17:40.180Z,5.09
2023-03-07T14:20:00.761Z,5.06
2023-03-07T14:22:12.683Z,5.05
2023-03-07T14:24:41.373Z,4.86
2023-03-07T14:26:47.715Z,4.62
2023-03-07T14:28:53.627Z,4.49
2023-03-07T14:31:01.110Z,4.48
2023-03-07T14:33:05.428Z,4.46
2023-03-07T14:35:15.412Z,4.40
2023-03-07T14:37:24.099Z,4.29
2023-03-07T14:39:43.265Z,4.28
2023-03-07T14:41:57.038Z,4.32
2023-03-07T14:44:16.451Z,4.39
2023-03-07T14:46:31.454Z,4.48
2023-03-07T14:49:08.235Z,4.60
2023-03-07T14:51:17.826Z,4.66
2023-03-07T14:53:26.742Z,4.70
2023-03-07T14:55:37.795Z,4.79
2023-03-07T14:57:46.648Z,4.61
2023-03-07T15:00:13.714Z,4.48
2023-03-07T15:02:19.473Z,4.37
2023-03-07T15:04:26.235Z,4.29
2023-03-07T15:06:31.751Z,4.32
2023-03-07T15:08:38.655Z,4.24
2023-03-07T15:10:48.563Z,4.16
2023-03-07T15:12:54.786Z,4.15
2023-03-07T15:15:02.918Z,4.18
2023-03-07T15:17:13.311Z,4.14
2023-03-07T15:19:22.284Z,4.09
2023-03-07T15:21:30.245Z,4.08
2023-03-07T15:23:34.804Z,4.10
2023-03-07T15:25:40.302Z,4.14
2023-03-07T15:27:45.570Z,4.15
2023-03-07T15:29:49.856Z,4.11
2023-03-07T15:31:56.154Z,4.05
2023-03-07T15:34:12.602Z,3.97
2023-03-07T15:36:27.656Z,3.84
2023-03-07T15:38:31.159Z,3.77
2023-03-07T15:40:35.916Z,3.68
2023-03-07T15:42:52.183Z,3.62
2023-03-07T15:44:57.545Z,3.60
2023-03-07T15:47:06.051Z,3.60
2023-03-07T15:49:23.303Z,3.64
2023-03-07T15:51:35.417Z,3.71
2023-03-07T15:53:41.878Z,3.70
2023-03-07T15:55:55.476Z,3.68
2023-03-07T15:58:03.993Z,3.68
2023-03-07T16:00:17.472Z,3.72
2023-03-07T16:02:37.822Z,3.73
2023-03-07T16:04:42.979Z,3.76
2023-03-07T16:06:47.090Z,3.80
2023-03-07T16:08:50.860Z,3.80
2023-03-07T16:11:00.616Z,3.75
2023-03-07T16:13:05.647Z,3.72
2023-03-07T16:15:14.969Z,3.72
2023-03-07T16:17:21.771Z,3.69
2023-03-07T16:19:25.540Z,3.66
2023-03-07T16:21:29.905Z,3.64
2023-03-07T16:23:34.638Z,3.66
2023-03-07T16:25:39.071Z,3.66
2023-03-07T16:27:46.216Z,3.62
2023-03-07T16:29:51.990Z,3.60
2023-03-07T16:31:55.735Z,3.54
2023-03-07T16:34:00.953Z,3.50
2023-03-07T16:36:04.724Z,3.53
2023-03-07T16:38:08.622Z,3.55
2023-03-07T16:40:13.589Z,3.56
2023-03-07T16:42:21.903Z,3.55
2023-03-07T16:44:25.773Z,3.53
2023-03-07T16:46:31.643Z,3.54
2023-03-07T16:48:35.929Z,3.55
2023-03-07T16:50:40.217Z,3.52
2023-03-07T16:52:44.424Z,3.51
2023-03-07T16:54:48.576Z,3.49
2023-03-07T16:56:55.766Z,3.45
2023-03-07T16:59:01.897Z,3.45
2023-03-07T17:01:06.398Z,3.43
2023-03-07T17:03:12.497Z,3.39
2023-03-07T17:05:18.877Z,3.34
2023-03-07T17:07:24.344Z,3.29
2023-03-07T17:09:28.194Z,3.27
2023-03-07T17:11:32.573Z,3.28
2023-03-07T17:13:36.257Z,3.29
2023-03-07T17:15:40.481Z,3.30
2023-03-07T17:17:45.489Z,3.30
2023-03-07T17:19:51.257Z,3.31
2023-03-07T17:21:55.263Z,3.31
2023-03-07T17:23:59.272Z,3.28
2023-03-07T17:26:03.282Z,3.24
2023-03-07T17:28:09.996Z,3.20
2023-03-07T17:30:20.952Z,3.17
2023-03-07T17:32:24.731Z,3.15
2023-03-07T17:34:31.105Z,3.13
2023-03-07T17:36:36.596Z,3.11
2023-03-07T17:38:41.014Z,3.10
2023-03-07T17:40:45.530Z,3.07
2023-03-07T17:42:51.912Z,3.03
2023-03-07T17:44:56.099Z,3.00
2023-03-07T17:47:00.709Z,2.97
2023-03-07T17:49:04.836Z,2.93
2023-03-07T17:51:11.080Z,2.87
2023-03-07T17:53:16.954Z,2.80
2023-03-07T17:55:21.238Z,2.80
2023-03-07T17:57:25.224Z,2.80
2023-03-07T17:59:28.993Z,2.77
2023-03-07T18:01:33.887Z,2.73
2023-03-07T18:03:38.241Z,2.68
2023-03-07T18:05:42.794Z,2.64
2023-03-07T18:07:47.106Z,2.60
2023-03-07T18:10:06.915Z,2.56
2023-03-07T18:12:11.719Z,2.54
2023-03-07T18:14:15.446Z,2.50
2023-03-07T18:16:21.227Z,2.50
2023-03-07T18:18:25.802Z,2.49
2023-03-07T18:20:31.032Z,2.49
2023-03-07T18:22:37.855Z,2.50
2023-03-07T18:24:43.492Z,2.51
2023-03-07T18:26:58.224Z,2.49
2023-03-07T18:29:01.984Z,2.47
2023-03-07T18:31:09.562Z,2.46
2023-03-07T18:33:32.135Z,2.42
2023-03-07T18:35:38.610Z,2.40
2023-03-07T18:37:45.607Z,2.34
2023-03-07T18:39:50.571Z,2.29
2023-03-07T18:41:56.884Z,2.26
2023-03-07T18:44:02.708Z,2.25
2023-03-07T18:46:07.055Z,2.22
2023-03-07T18:48:14.422Z,2.20
2023-03-07T18:50:19.027Z,2.20
2023-03-07T18:52:24.507Z,2.18
2023-03-07T18:54:30.472Z,2.16
2023-03-07T18:56:36.839Z,2.16
2023-03-07T18:58:43.493Z,2.14
2023-03-07T19:00:48.321Z,2.15
2023-03-07T19:02:52.121Z,2.16
2023-03-07T19:04:55.880Z,2.17
2023-03-07T19:07:01.635Z,2.16
2023-03-07T19:09:06.515Z,2.17
2023-03-07T19:11:13.230Z,2.15
2023-03-07T19:13:19.892Z,2.14
2023-03-07T19:15:25.411Z,2.11
2023-03-07T19:17:30.677Z,2.12
2023-03-07T19:19:37.829Z,2.10
2023-03-07T19:21:42.881Z,2.09
2023-03-07T19:23:48.059Z,2.09
2023-03-07T19:25:51.620Z,2.07
2023-03-07T19:27:55.292Z,2.03
2023-03-07T19:29:58.766Z,2.01
2023-03-07T19:32:04.157Z,2.00
2023-03-07T19:34:07.983Z,1.96
2023-03-07T19:36:13.236Z,1.93
2023-03-07T19:38:17.257Z,1.93
2023-03-07T19:40:23.603Z,1.92
2023-03-07T19:42:27.173Z,1.91
2023-03-07T19:44:30.835Z,1.89
2023-03-07T19:46:34.840Z,1.90
2023-03-07T19:48:43.590Z,1.89
2023-03-07T19:50:48.911Z,1.88
2023-03-07T19:52:53.951Z,1.85
2023-03-07T19:54:57.778Z,1.81
2023-03-07T19:57:02.630Z,1.77
2023-03-07T19:59:07.188Z,1.73
2023-03-07T20:01:12.507Z,1.70
2023-03-07T20:03:17.590Z,1.66
2023-03-07T20:05:24.407Z,1.62
2023-03-07T20:07:28.627Z,1.57
2023-03-07T20:09:32.398Z,1.55
2023-03-07T20:11:38.916Z,1.52
2023-03-07T20:13:46.932Z,1.47
2023-03-07T20:15:53.196Z,1.44
2023-03-07T20:17:57.203Z,1.39
2023-03-07T20:20:02.374Z,1.37
2023-03-07T20:22:09.352Z,1.36
2023-03-07T20:24:14.141Z,1.34
2023-03-07T20:26:20.272Z,1.30
2023-03-07T20:28:25.293Z,1.28
2023-03-07T20:30:30.061Z,1.26
2023-03-07T20:32:36.573Z,1.24
2023-03-07T20:34:41.501Z,1.21
2023-03-07T20:36:47.459Z,1.18
2023-03-07T20:38:56.068Z,1.17
2023-03-07T20:41:04.946Z,1.16
2023-03-07T20:43:11.131Z,1.15
2023-03-07T20:45:17.114Z,1.15
2023-03-07T20:47:24.472Z,1.12
2023-03-07T20:49:30.850Z,1.10
2023-03-07T20:51:37.083Z,1.10
2023-03-07T20:53:42.409Z,1.11
2023-03-07T20:55:48.314Z,1.09
2023-03-07T20:57:52.575Z,1.04
2023-03-07T20:59:58.019Z,1.03
2023-03-07T21:02:02.051Z,1.00
2023-03-07T21:04:08.509Z,0.98
2023-03-07T21:06:14.028Z,0.96
2023-03-07T21:08:19.597Z,0.95
2023-03-07T21:10:25.089Z,0.96
2023-03-07T21:12:32.253Z,0.93
2023-03-07T21:14:37.904Z,0.93
2023-03-07T21:16:43.290Z,0.93
2023-03-07T21:18:47.467Z,0.93
2023-03-07T21:20:53.012Z,0.93
2023-03-07T21:22:58.110Z,0.92
2023-03-07T21:25:01.723Z,0.94
2023-03-07T21:27:06.475Z,0.94
2023-03-07T21:29:13.895Z,0.94
2023-03-07T21:31:20.242Z,0.93
2023-03-07T21:33:24.256Z,0.91
2023-03-07T21:35:32.364Z,0.92
2023-03-07T21:37:38.002Z,0.89
2023-03-07T21:39:42.486Z,0.89
2023-03-07T21:41:47.652Z,0.87
2023-03-07T21:43:50.990Z,0.85
2023-03-07T21:45:56.738Z,0.81
2023-03-07T21:48:00.731Z,0.79
2023-03-07T21:50:04.396Z,0.78
2023-03-07T21:52:08.046Z,0.79
2023-03-07T21:54:12.490Z,0.80
2023-03-07T21:56:18.046Z,0.80
2023-03-07T21:58:22.445Z,0.80
2023-03-07T22:00:27.103Z,0.82
2023-03-07T22:02:32.146Z,0.85
2023-03-07T22:04:36.940Z,0.86
2023-03-07T22:06:41.144Z,0.89
2023-03-07T22:08:44.998Z,0.90
2023-03-07T22:10:58.159Z,0.92
2023-03-07T22:13:01.768Z,0.92
2023-03-07T22:15:05.929Z,0.91
2023-03-07T22:17:09.588Z,0.91
2023-03-07T22:19:16.896Z,0.92
2023-03-07T22:21:21.607Z,0.93
2023-03-07T22:23:26.801Z,0.93
2023-03-07T22:25:31.357Z,0.93
2023-03-07T22:27:38.316Z,0.93
2023-03-07T22:29:41.985Z,0.94
2023-03-07T22:31:45.732Z,0.95
2023-03-07T22:33:49.465Z,0.94
2023-03-07T22:35:59.355Z,0.96
2023-03-07T22:38:02.967Z,1.00
2023-03-07T22:40:09.077Z,1.03
2023-03-07T22:42:13.025Z,1.05
2023-03-07T22:44:20.603Z,1.02
2023-03-07T22:46:24.804Z,1.02
2023-03-07T22:48:30.852Z,1.03
2023-03-07T22:50:35.545Z,1.03
2023-03-07T22:52:41.641Z,1.03
2023-03-07T22:54:46.043Z,1.06
2023-03-07T22:56:50.335Z,1.10
2023-03-07T22:58:55.737Z,1.11
2023-03-07T23:00:59.512Z,1.14
2023-03-07T23:03:03.161Z,1.16
2023-03-07T23:05:07.532Z,1.16
2023-03-07T23:07:11.765Z,1.19
2023-03-07T23:09:17.363Z,1.19
2023-03-07T23:11:26.962Z,1.19
2023-03-07T23:13:30.455Z,1.21
2023-03-07T23:15:34.575Z,1.22
2023-03-07T23:17:38.717Z,1.26
2023-03-07T23:19:44.326Z,1.29
2023-03-07T23:21:49.420Z,1.29
2023-03-07T23:23:54.463Z,1.30
2023-03-07T23:25:59.759Z,1.28
2023-03-07T23:28:03.115Z,1.29
2023-03-07T23:30:08.242Z,1.29
2023-03-07T23:32:11.834Z,1.30
2023-03-07T23:34:17.505Z,1.31
2023-03-07T23:36:20.976Z,1.31
2023-03-07T23:38:24.718Z,1.31
2023-03-07T23:40:28.538Z,1.31
2023-03-07T23:42:33.395Z,1.31
2023-03-07T23:44:37.080Z,1.35
2023-03-07T23:46:41.471Z,1.40
2023-03-07T23:48:45.073Z,1.43
2023-03-07T23:50:50.508Z,1.48
2023-03-07T23:52:54.303Z,1.49
2023-03-07T23:54:57.960Z,1.51
2023-03-07T23:57:01.538Z,1.51
2023-03-07T23:59:06.602Z,1.53
